Arlington, WY

11:20 PM MDT on October 20, 2014 (GMT -0600)
KWYMEDIC2 | Change Station
CLOSE
Current Station
Personal Weather Station
Location: Medicine Bow, WY
Elevation: 6646 ft
Nearby Weather Stations

Elev 6646 ft 41.89 °N, 106.19 °W | Updated 28 seconds ago

Clear
Clear
47.5 °F
Feels Like 48 °F
N
0.0
Wind Variable Wind from SE
Gusts 2.0 mph

Today
High -- | Low -- °F
--% Chance of Precip.
Yesterday
High -- | Low -- °F
Precip. -- in
7:21 AM 6:14 PM
Waning Crescent, 7% visible
Pressure 30.11 in
Visibility 10.0 miles
Clouds Clear
Windchill 48 °F
Dew Point 34 °F
Humidity 61%
Rainfall 0.00 in
Snow Depth Not available.
UV 0 out of 12
Pollen 3.00 out of 12
Air Quality Not available.
Flu Activity Sporadic
METAR KEHY 210515Z AUTO 17005KT 10SM CLR 08/00 A3011 RMK AO2

More Conditions Fewer Conditions

Pressure 30.11 in
Visibility 10.0 miles
Clouds Clear
Windchill 48 °F
Dew Point 34 °F
Humidity 61%
Rainfall 0.00 in
Snow Depth Not available.
UV 0 out of 12
Pollen 3.00 out of 12
Air Quality Not available.
Flu Activity Sporadic
METAR KEHY 210515Z AUTO 17005KT 10SM CLR 08/00 A3011 RMK AO2

More Conditions Fewer Conditions

10-Day Weather Forecast

Almanac

Astronomy

Oct. 20, 2014 Rise Set
Actual Time 7:21 AM MDT 6:14 PM MDT
Civil Twilight 6:53 AM MDT 6:42 PM MDT
Nautical Twilight 6:20 AM MDT 7:14 PM MDT
Astronomical Twilight 5:48 AM MDT 7:47 PM MDT
Moon 4:09 AM MDT (10/20) 4:40 PM MDT (10/20)
Length of Visible Light 11h 49m
Length of Day
10h 52m
Tomorrow will be 2m 38s shorter.
Waning Crescent, 7% of the Moon is Illuminated
Oct 21
Waning Crescent
Oct 23
New
Oct 30
First Quarter
Nov 6
Full
Nov 14
Last Quarter

Yesterday's Extremes

State Highs State Lows

Community

WunderPhotos

Upload Photos

1,763,612 photos uploaded!

Nearby

Snow Depth

Station Depth Elevation
Sand Lake 4 in 10050 ft
Brooklyn Lake 0 in 10220 ft
Windy Peak 0 in 7900 ft
North French Creek 0 in 10130 ft
Cinnabar Park 1 in 9690 ft

Earthquake Activity

City Distance Mag. Time & Date
No recent earthquake activity has been reported nearby.
Minimum magnitude displayed is 2.5.

Coastal Water Temperatures

Place Temperature
No Stations Reporting

Nearby Weather Stations